Trans Exeter — 9HA2572 — position and weather

sailwx.info

Track history (hours):
 
Tides and Currents Weather Stations Pressure Air Temp Water Temp Dewpoint Dewpoint Depression Visibility Wind Speed Wind Dir Waves Ship Positions

Trans Exeter

Last reported at 2017-Mar-23 00:33 UTC. Time now 2017-Mar-23 12:33 UTC.
Position N 38°20' W 010°06'.

Length 118 m; draft 7.2 m.

Type: Ship (hazmat cat C). MMSI: 248908000.

Date/timePositionNaut miles runAvg speedWind from/ knotsBaromVisibWave heightAir tempDewpointWater temp
2017-Mar-23 00:33N 38°20' W 010°06'1313.4
2017-Mar-22 23:33N 38°33' W 010°10'1413.4
2017-Mar-22 22:32N 38°46' W 010°12'1313.3
2017-Mar-22 21:33N 38°59' W 010°12'1413.6
2017-Mar-22 20:33N 39°13' W 010°12'  
2017-Mar-20 10:18N 49°46' W 003°32'1111.1
2017-Mar-20 09:18N 49°51' W 003°16'911.6
2017-Mar-20 08:33N 49°56' W 003°05'1212.3
2017-Mar-20 07:33N 50°01' W 002°48'3113.6
2017-Mar-20 05:15N 50°10' W 002°01'913.6
2017-Mar-20 04:33N 50°13' W 001°47'1313.1
2017-Mar-20 03:33N 50°16' W 001°28'4310.7
2017-Mar-19 23:34N 50°27' W 000°22'1211.2
2017-Mar-19 22:30N 50°31' W 000°05'1111.9
2017-Mar-19 21:33N 50°34' E 000°12'1312.6
2017-Mar-19 20:33N 50°38' E 000°31'1312.7
2017-Mar-19 19:33N 50°44' E 000°49'2311.5
2017-Mar-19 17:34N 50°59' E 001°17'10 9.5
2017-Mar-19 16:33N 51°05' E 001°29'9 9.0
2017-Mar-19 15:33N 51°10' E 001°40'10 9.8
2017-Mar-19 14:33N 51°18' E 001°49'1212.4
2017-Mar-19 13:33N 51°29' E 001°58'3313.7
2017-Mar-19 11:08N 52°01' E 002°12'813.7
2017-Mar-19 10:33N 52°09' E 002°12'1313.2
2017-Mar-19 09:33N 52°22' E 002°12'2511.7
2017-Mar-19 07:27N 52°46' E 001°60'1011.8
2017-Mar-19 06:34N 52°51' E 001°45'1111.2
2017-Mar-19 05:33N 52°59' E 001°31'1211.5
2017-Mar-19 04:33N 53°09' E 001°21'6612.1
2017-Mar-18 23:08N 54°02' E 000°16'813.4
2017-Mar-18 22:34N 54°07' E 000°07'1413.9
2017-Mar-18 21:33N 54°18' W 000°08'1414.4
2017-Mar-18 20:33N 54°29' W 000°25'  
2017-Mar-14 23:33N 54°37' W 000°23'1414.4
2017-Mar-14 22:33N 54°33' E 000°01'1414.1
2017-Mar-14 21:33N 54°30' E 000°25'26513.0
2017-Mar-14 01:06N 54°04' E 007°57'713.4
2017-Mar-14 00:33N 54°01' E 008°08'1211.7
2017-Mar-13 23:33N 53°59' E 008°28'10 9.8
2017-Mar-13 22:33N 53°54' E 008°42'9 9.2
2017-Mar-13 21:33N 53°51' E 008°57'1211.8
2017-Mar-13 20:34N 53°52' E 009°17'1313.4
2017-Mar-13 19:34N 53°41' E 009°30'2 2.0
2017-Mar-13 18:27N 53°39' E 009°31'0 0.0
2017-Mar-13 17:33N 53°39' E 009°31'0 0.0
2017-Mar-13 16:33N 53°39' E 009°31'0 0.0
2017-Mar-13 15:33N 53°39' E 009°31'0 0.0
2017-Mar-13 14:33N 53°39' E 009°31'0 0.0
2017-Mar-13 13:33N 53°39' E 009°31'0 0.0
2017-Mar-13 12:33N 53°39' E 009°31'0 0.0
2017-Mar-13 11:33N 53°39' E 009°31'0 0.0
2017-Mar-13 10:33N 53°39' E 009°31'0 0.0
2017-Mar-13 09:33N 53°39' E 009°31'0 0.0
2017-Mar-13 08:33N 53°39' E 009°31'3 2.9
2017-Mar-13 07:33N 53°42' E 009°30'5 5.1
2017-Mar-13 06:34N 53°46' E 009°24'8 7.6
2017-Mar-13 05:33N 53°52' E 009°17'7 6.8
2017-Mar-13 04:33N 53°52' E 009°05'8 7.9
2017-Mar-13 03:33N 53°50' E 008°52'8 7.4
2017-Mar-13 02:32N 53°54' E 008°41'8 8.4
2017-Mar-13 01:31N 53°58' E 008°29'  
Track history (hours):
 
Tides and Currents Weather Stations Pressure Air Temp Water Temp Dewpoint Dewpoint Depression Visibility Wind Speed Wind Dir Waves Ship Positions

Trans Exeter

Last reported at 2017-Mar-23 00:33 UTC. Time now 2017-Mar-23 12:33 UTC.
Position N 38°20' W 010°06'.

Length 118 m; draft 7.2 m.

Type: Ship (hazmat cat C). MMSI: 248908000.

Date/timePositionNaut miles runAvg speedWind from/ knotsBaromVisibWave heightAir tempDewpointWater temp
2017-Mar-23 00:33N 38°20' W 010°06'1313.4
2017-Mar-22 23:33N 38°33' W 010°10'1413.4
2017-Mar-22 22:32N 38°46' W 010°12'1313.3
2017-Mar-22 21:33N 38°59' W 010°12'1413.6
2017-Mar-22 20:33N 39°13' W 010°12'  
2017-Mar-20 10:18N 49°46' W 003°32'1111.1
2017-Mar-20 09:18N 49°51' W 003°16'911.6
2017-Mar-20 08:33N 49°56' W 003°05'1212.3
2017-Mar-20 07:33N 50°01' W 002°48'3113.6
2017-Mar-20 05:15N 50°10' W 002°01'913.6
2017-Mar-20 04:33N 50°13' W 001°47'1313.1
2017-Mar-20 03:33N 50°16' W 001°28'4310.7
2017-Mar-19 23:34N 50°27' W 000°22'1211.2
2017-Mar-19 22:30N 50°31' W 000°05'1111.9
2017-Mar-19 21:33N 50°34' E 000°12'1312.6
2017-Mar-19 20:33N 50°38' E 000°31'1312.7
2017-Mar-19 19:33N 50°44' E 000°49'2311.5
2017-Mar-19 17:34N 50°59' E 001°17'10 9.5
2017-Mar-19 16:33N 51°05' E 001°29'9 9.0
2017-Mar-19 15:33N 51°10' E 001°40'10 9.8
2017-Mar-19 14:33N 51°18' E 001°49'1212.4
2017-Mar-19 13:33N 51°29' E 001°58'3313.7
2017-Mar-19 11:08N 52°01' E 002°12'813.7
2017-Mar-19 10:33N 52°09' E 002°12'1313.2
2017-Mar-19 09:33N 52°22' E 002°12'2511.7
2017-Mar-19 07:27N 52°46' E 001°60'1011.8
2017-Mar-19 06:34N 52°51' E 001°45'1111.2
2017-Mar-19 05:33N 52°59' E 001°31'1211.5
2017-Mar-19 04:33N 53°09' E 001°21'6612.1
2017-Mar-18 23:08N 54°02' E 000°16'813.4
2017-Mar-18 22:34N 54°07' E 000°07'1413.9
2017-Mar-18 21:33N 54°18' W 000°08'1414.4
2017-Mar-18 20:33N 54°29' W 000°25'  
2017-Mar-14 23:33N 54°37' W 000°23'1414.4
2017-Mar-14 22:33N 54°33' E 000°01'1414.1
2017-Mar-14 21:33N 54°30' E 000°25'26513.0
2017-Mar-14 01:06N 54°04' E 007°57'713.4
2017-Mar-14 00:33N 54°01' E 008°08'1211.7
2017-Mar-13 23:33N 53°59' E 008°28'10 9.8
2017-Mar-13 22:33N 53°54' E 008°42'9 9.2
2017-Mar-13 21:33N 53°51' E 008°57'1211.8
2017-Mar-13 20:34N 53°52' E 009°17'1313.4
2017-Mar-13 19:34N 53°41' E 009°30'2 2.0
2017-Mar-13 18:27N 53°39' E 009°31'0 0.0
2017-Mar-13 17:33N 53°39' E 009°31'0 0.0
2017-Mar-13 16:33N 53°39' E 009°31'0 0.0
2017-Mar-13 15:33N 53°39' E 009°31'0 0.0
2017-Mar-13 14:33N 53°39' E 009°31'0 0.0
2017-Mar-13 13:33N 53°39' E 009°31'0 0.0
2017-Mar-13 12:33N 53°39' E 009°31'0 0.0
2017-Mar-13 11:33N 53°39' E 009°31'0 0.0
2017-Mar-13 10:33N 53°39' E 009°31'0 0.0
2017-Mar-13 09:33N 53°39' E 009°31'0 0.0
2017-Mar-13 08:33N 53°39' E 009°31'3 2.9
2017-Mar-13 07:33N 53°42' E 009°30'5 5.1
2017-Mar-13 06:34N 53°46' E 009°24'8 7.6
2017-Mar-13 05:33N 53°52' E 009°17'7 6.8
2017-Mar-13 04:33N 53°52' E 009°05'8 7.9
2017-Mar-13 03:33N 53°50' E 008°52'8 7.4
2017-Mar-13 02:32N 53°54' E 008°41'8 8.4
2017-Mar-13 01:31N 53°58' E 008°29'  

Dump ship's entire track history